createdAt,value
2022-10-06T00:00:13.085Z,8.81
2022-10-06T00:01:14.102Z,8.81
2022-10-06T00:02:14.530Z,8.83
2022-10-06T00:03:15.362Z,8.86
2022-10-06T00:04:16.246Z,8.87
2022-10-06T00:05:17.142Z,8.87
2022-10-06T00:06:18.023Z,8.89
2022-10-06T00:07:18.905Z,8.89
2022-10-06T00:08:19.782Z,8.91
2022-10-06T00:09:20.660Z,8.91
2022-10-06T00:10:21.562Z,8.91
2022-10-06T00:11:22.473Z,8.91
2022-10-06T00:12:23.320Z,8.91
2022-10-06T00:13:24.206Z,8.91
2022-10-06T00:14:25.115Z,8.87
2022-10-06T00:15:25.972Z,8.86
2022-10-06T00:16:26.853Z,8.83
2022-10-06T00:17:27.745Z,8.79
2022-10-06T00:18:29.043Z,8.74
2022-10-06T00:19:29.579Z,8.71
2022-10-06T00:20:30.465Z,8.68
2022-10-06T00:21:31.339Z,8.66
2022-10-06T00:22:32.221Z,8.66
2022-10-06T00:23:33.122Z,8.65
2022-10-06T00:24:33.977Z,8.65
2022-10-06T00:25:34.871Z,8.66
2022-10-06T00:26:35.753Z,8.66
2022-10-06T00:27:36.628Z,8.70
2022-10-06T00:28:37.590Z,8.70
2022-10-06T00:29:38.497Z,8.70
2022-10-06T00:30:39.370Z,8.70
2022-10-06T00:31:40.263Z,8.66
2022-10-06T00:32:41.143Z,8.63
2022-10-06T00:33:42.045Z,8.61
2022-10-06T00:34:42.907Z,8.59
2022-10-06T00:35:43.794Z,8.55
2022-10-06T00:36:44.673Z,8.52
2022-10-06T00:37:45.559Z,8.45
2022-10-06T00:38:46.462Z,8.34
2022-10-06T00:39:47.346Z,8.23
2022-10-06T00:40:48.239Z,8.18
2022-10-06T00:41:49.113Z,8.08
2022-10-06T00:42:49.997Z,8.00
2022-10-06T00:43:50.938Z,7.93
2022-10-06T00:44:51.815Z,7.83
2022-10-06T00:45:52.732Z,7.75
2022-10-06T00:46:53.605Z,7.68
2022-10-06T00:47:54.495Z,7.60
2022-10-06T00:48:55.369Z,7.57
2022-10-06T00:49:56.252Z,7.52
2022-10-06T00:50:57.144Z,7.48
2022-10-06T00:51:58.016Z,7.48
2022-10-06T00:52:58.898Z,7.46
2022-10-06T00:53:59.776Z,7.45
2022-10-06T00:55:00.658Z,7.45
2022-10-06T00:56:01.550Z,7.46
2022-10-06T00:57:02.427Z,7.45
2022-10-06T00:58:03.299Z,7.43
2022-10-06T00:59:04.185Z,7.43
2022-10-06T01:00:05.106Z,7.40
2022-10-06T01:01:05.979Z,7.40
2022-10-06T01:02:06.850Z,7.37
2022-10-06T01:03:07.894Z,7.35
2022-10-06T01:04:08.289Z,7.34
2022-10-06T01:05:09.149Z,7.32
2022-10-06T01:06:10.062Z,7.32
2022-10-06T01:07:10.975Z,7.31
2022-10-06T01:08:11.837Z,7.28
2022-10-06T01:09:12.720Z,7.27
2022-10-06T01:10:13.602Z,7.23
2022-10-06T01:11:14.496Z,7.20
2022-10-06T01:12:15.379Z,7.21
2022-10-06T01:13:16.269Z,7.17
2022-10-06T01:14:17.168Z,7.17
2022-10-06T01:15:18.069Z,7.16
2022-10-06T01:16:19.029Z,7.13
2022-10-06T01:17:19.877Z,7.12
2022-10-06T01:18:20.761Z,7.10
2022-10-06T01:19:21.642Z,7.09
2022-10-06T01:20:22.528Z,7.09
2022-10-06T01:21:23.417Z,7.07
2022-10-06T01:22:24.317Z,7.07
2022-10-06T01:23:25.209Z,7.07
2022-10-06T01:24:26.085Z,7.03
2022-10-06T01:25:26.999Z,7.02
2022-10-06T01:26:27.893Z,6.98
2022-10-06T01:27:28.781Z,6.98
2022-10-06T01:28:30.052Z,6.95
2022-10-06T01:29:30.503Z,6.91
2022-10-06T01:30:31.400Z,6.91
2022-10-06T01:31:32.350Z,6.89
2022-10-06T01:32:33.223Z,6.87
2022-10-06T01:33:34.067Z,6.85
2022-10-06T01:34:34.948Z,6.84
2022-10-06T01:35:35.827Z,6.84
2022-10-06T01:36:36.720Z,6.84
2022-10-06T01:37:37.609Z,6.81
2022-10-06T01:38:38.481Z,6.81
2022-10-06T01:39:39.372Z,6.81
2022-10-06T01:40:40.255Z,6.80
2022-10-06T01:41:41.158Z,6.81
2022-10-06T01:42:42.043Z,6.81
2022-10-06T01:43:42.908Z,6.84
2022-10-06T01:44:43.781Z,6.84
2022-10-06T01:45:44.709Z,6.85
2022-10-06T01:46:45.623Z,6.85
2022-10-06T01:47:46.489Z,6.87
2022-10-06T01:48:47.374Z,6.87
2022-10-06T01:49:48.254Z,6.87
2022-10-06T01:50:49.137Z,6.88
2022-10-06T01:51:50.030Z,6.88
2022-10-06T01:52:50.919Z,6.91
2022-10-06T01:53:51.786Z,6.89
2022-10-06T01:54:52.663Z,6.88
2022-10-06T01:55:53.557Z,6.80
2022-10-06T01:56:54.444Z,6.80
2022-10-06T01:57:55.321Z,6.79
2022-10-06T01:58:56.206Z,6.80
2022-10-06T01:59:57.086Z,6.80
2022-10-06T02:00:57.996Z,6.79
2022-10-06T02:01:58.943Z,6.79
2022-10-06T02:02:59.791Z,6.76
2022-10-06T02:04:00.758Z,6.74
2022-10-06T02:05:01.613Z,6.76
2022-10-06T02:06:02.567Z,6.76
2022-10-06T02:07:03.394Z,6.74
2022-10-06T02:08:04.271Z,6.73
2022-10-06T02:09:05.167Z,6.73
2022-10-06T02:10:06.037Z,6.71
2022-10-06T02:11:06.947Z,6.73
2022-10-06T02:12:07.834Z,6.70
2022-10-06T02:13:08.738Z,6.70
2022-10-06T02:14:09.640Z,6.71
2022-10-06T02:15:10.522Z,6.71
2022-10-06T02:16:11.462Z,6.73
2022-10-06T02:17:12.315Z,6.71
2022-10-06T02:18:13.233Z,6.71
2022-10-06T02:19:14.125Z,6.73
2022-10-06T02:20:15.044Z,6.73
2022-10-06T02:21:15.926Z,6.71
2022-10-06T02:22:16.825Z,6.73
2022-10-06T02:23:17.695Z,6.73
2022-10-06T02:24:18.580Z,6.73
2022-10-06T02:25:19.462Z,6.71
2022-10-06T02:26:20.345Z,6.71
2022-10-06T02:27:21.257Z,6.73
2022-10-06T02:28:22.201Z,6.73
2022-10-06T02:29:23.036Z,6.73
2022-10-06T02:30:23.927Z,6.73
2022-10-06T02:31:24.948Z,6.74
2022-10-06T02:32:25.327Z,6.74
2022-10-06T02:33:26.220Z,6.76
2022-10-06T02:34:27.096Z,6.70
2022-10-06T02:35:27.988Z,6.70
2022-10-06T02:36:28.874Z,6.69
2022-10-06T02:37:29.753Z,6.66
2022-10-06T02:38:31.156Z,6.67
2022-10-06T02:39:31.210Z,6.62
2022-10-06T02:40:32.100Z,6.59
2022-10-06T02:41:32.983Z,6.61
2022-10-06T02:42:33.866Z,6.59
2022-10-06T02:43:34.749Z,6.56
2022-10-06T02:44:35.630Z,6.52
2022-10-06T02:45:36.549Z,6.43
2022-10-06T02:46:37.490Z,6.36
2022-10-06T02:47:38.302Z,6.30
2022-10-06T02:48:39.184Z,6.25
2022-10-06T02:49:40.073Z,6.21
2022-10-06T02:50:40.962Z,6.18
2022-10-06T02:51:41.845Z,6.17
2022-10-06T02:52:42.752Z,6.17
2022-10-06T02:53:43.632Z,6.19
2022-10-06T02:54:44.493Z,6.18
2022-10-06T02:55:45.389Z,6.17
2022-10-06T02:56:46.271Z,6.18
2022-10-06T02:57:47.153Z,6.18
2022-10-06T02:58:48.045Z,6.18
2022-10-06T02:59:48.931Z,6.17
2022-10-06T03:00:49.809Z,6.17
2022-10-06T03:01:50.812Z,6.15
2022-10-06T03:02:51.305Z,6.15
2022-10-06T03:03:51.697Z,6.11
2022-10-06T03:04:52.579Z,6.11
2022-10-06T03:05:53.516Z,6.08
2022-10-06T03:06:54.373Z,6.06
2022-10-06T03:07:55.259Z,6.03
2022-10-06T03:08:56.153Z,6.01
2022-10-06T03:09:57.020Z,6.01
2022-10-06T03:10:57.914Z,5.97
2022-10-06T03:11:58.811Z,5.96
2022-10-06T03:12:59.680Z,5.94
2022-10-06T03:14:00.557Z,5.93
2022-10-06T03:15:01.436Z,5.93
2022-10-06T03:16:02.393Z,5.93
2022-10-06T03:17:03.328Z,5.93
2022-10-06T03:18:04.147Z,5.90
2022-10-06T03:19:05.016Z,5.90
2022-10-06T03:20:05.899Z,5.81
2022-10-06T03:21:06.792Z,5.78
2022-10-06T03:22:07.675Z,5.68
2022-10-06T03:23:13.328Z,5.60
2022-10-06T03:24:10.350Z,5.53
2022-10-06T03:25:10.226Z,5.48
2022-10-06T03:26:11.120Z,5.40
2022-10-06T03:27:12.003Z,5.38
2022-10-06T03:28:12.922Z,5.36
2022-10-06T03:29:13.775Z,5.36
2022-10-06T03:30:14.672Z,5.38
2022-10-06T03:31:15.603Z,5.38
2022-10-06T03:32:16.464Z,5.39
2022-10-06T03:33:17.327Z,5.39
2022-10-06T03:34:18.224Z,5.40
2022-10-06T03:35:19.093Z,5.43
2022-10-06T03:36:20.002Z,5.42
2022-10-06T03:37:20.874Z,5.45
2022-10-06T03:38:21.760Z,5.45
2022-10-06T03:39:22.647Z,5.51
2022-10-06T03:40:23.534Z,5.53
2022-10-06T03:41:24.417Z,5.54
2022-10-06T03:42:25.343Z,5.56
2022-10-06T03:43:26.221Z,5.57
2022-10-06T03:44:27.085Z,5.60
2022-10-06T03:45:27.975Z,5.60
2022-10-06T03:46:28.931Z,5.61
2022-10-06T03:47:29.779Z,5.58
2022-10-06T03:48:31.238Z,5.61
2022-10-06T03:49:31.270Z,5.63
2022-10-06T03:50:32.140Z,5.63
2022-10-06T03:51:33.031Z,5.64
2022-10-06T03:52:33.907Z,5.65
2022-10-06T03:53:34.785Z,5.67
2022-10-06T03:54:35.687Z,5.68
2022-10-06T03:55:36.556Z,5.67
2022-10-06T03:56:37.439Z,5.65
2022-10-06T03:57:38.320Z,5.71
2022-10-06T03:58:39.195Z,5.71
2022-10-06T03:59:40.078Z,5.71
2022-10-06T04:00:41.022Z,5.71
2022-10-06T04:01:41.861Z,5.71
2022-10-06T04:02:42.748Z,5.74
2022-10-06T04:03:43.611Z,5.68
2022-10-06T04:04:44.484Z,5.61
2022-10-06T04:05:45.387Z,5.57
2022-10-06T04:06:46.299Z,5.51
2022-10-06T04:07:47.197Z,5.48
2022-10-06T04:08:48.082Z,5.42
2022-10-06T04:09:48.962Z,5.39
2022-10-06T04:10:49.855Z,5.38
2022-10-06T04:11:50.748Z,5.38
2022-10-06T04:12:51.662Z,5.38
2022-10-06T04:13:52.533Z,5.38
2022-10-06T04:14:56.577Z,5.38
2022-10-06T04:15:55.238Z,5.35
2022-10-06T04:16:55.080Z,5.35
2022-10-06T04:17:56.097Z,5.33
2022-10-06T04:18:56.922Z,5.31
2022-10-06T04:19:57.789Z,5.30
2022-10-06T04:20:58.673Z,5.28
2022-10-06T04:21:59.557Z,5.27
2022-10-06T04:23:00.428Z,5.28
2022-10-06T04:24:01.313Z,5.28
2022-10-06T04:25:02.200Z,5.30
2022-10-06T04:26:03.086Z,5.28
2022-10-06T04:27:03.962Z,5.30
2022-10-06T04:28:04.932Z,5.33
2022-10-06T04:29:05.759Z,5.33
2022-10-06T04:30:06.641Z,5.36
2022-10-06T04:31:07.602Z,5.35
2022-10-06T04:32:08.471Z,5.38
2022-10-06T04:33:09.372Z,5.38
2022-10-06T04:34:10.229Z,5.39
2022-10-06T04:35:11.111Z,5.39
2022-10-06T04:36:12.009Z,5.39
2022-10-06T04:37:12.910Z,5.38
2022-10-06T04:38:13.771Z,5.35
2022-10-06T04:39:14.655Z,5.31
2022-10-06T04:40:15.537Z,5.30
2022-10-06T04:41:16.438Z,5.28
2022-10-06T04:42:17.303Z,5.25
2022-10-06T04:43:18.209Z,5.25
2022-10-06T04:44:19.070Z,5.25
2022-10-06T04:45:19.954Z,5.33
2022-10-06T04:46:45.980Z,5.31
2022-10-06T04:47:22.615Z,5.31
2022-10-06T04:48:22.520Z,5.33
2022-10-06T04:49:23.396Z,5.35
2022-10-06T04:50:24.267Z,5.35
2022-10-06T04:51:25.160Z,5.33
2022-10-06T04:52:26.043Z,5.33
2022-10-06T04:53:26.923Z,5.31
2022-10-06T04:54:32.766Z,5.28
2022-10-06T04:55:29.580Z,5.30
2022-10-06T04:56:29.466Z,5.27
2022-10-06T04:57:30.345Z,5.30
2022-10-06T04:58:31.758Z,5.28
2022-10-06T04:59:31.690Z,5.30
2022-10-06T05:00:32.562Z,5.31
2022-10-06T05:01:33.426Z,5.31
2022-10-06T05:02:34.362Z,5.31
2022-10-06T05:03:35.367Z,5.28
2022-10-06T05:04:36.235Z,5.28
2022-10-06T05:05:37.066Z,5.27
2022-10-06T05:06:37.905Z,5.28
2022-10-06T05:07:38.751Z,5.27
2022-10-06T05:08:39.601Z,5.28
2022-10-06T05:09:40.467Z,5.28
2022-10-06T05:10:41.317Z,5.28
2022-10-06T05:11:42.145Z,5.30
2022-10-06T05:12:42.978Z,5.30
2022-10-06T05:13:43.802Z,5.28
2022-10-06T05:14:46.554Z,5.28
2022-10-06T05:15:45.423Z,5.25
2022-10-06T05:16:46.264Z,5.20
2022-10-06T05:17:47.087Z,5.17
2022-10-06T05:18:47.925Z,5.13
2022-10-06T05:19:48.743Z,5.07
2022-10-06T05:20:49.592Z,5.06
2022-10-06T05:21:50.541Z,5.02
2022-10-06T05:22:51.340Z,5.00
2022-10-06T05:23:52.123Z,4.97
2022-10-06T05:24:52.940Z,5.00
2022-10-06T05:25:53.791Z,4.97
2022-10-06T05:26:58.335Z,4.99
2022-10-06T05:27:56.387Z,5.00
2022-10-06T05:28:56.194Z,5.00
2022-10-06T05:29:57.032Z,4.99
2022-10-06T05:30:57.864Z,4.99
2022-10-06T05:31:58.716Z,5.00
2022-10-06T05:32:59.532Z,5.00
2022-10-06T05:34:00.427Z,4.99
2022-10-06T05:35:01.238Z,4.97
2022-10-06T05:36:02.037Z,4.99
2022-10-06T05:37:02.869Z,4.96
2022-10-06T05:38:03.699Z,4.97
2022-10-06T05:39:04.529Z,4.94
2022-10-06T05:40:05.361Z,4.99
2022-10-06T05:41:06.213Z,4.97
2022-10-06T05:42:07.027Z,4.97
2022-10-06T05:43:07.855Z,4.99
2022-10-06T05:44:08.697Z,4.94
2022-10-06T05:45:09.525Z,4.94
2022-10-06T05:46:10.403Z,4.92
2022-10-06T05:47:11.180Z,4.92
2022-10-06T05:48:12.023Z,4.91
2022-10-06T05:49:12.885Z,4.91
2022-10-06T05:50:13.672Z,4.88
2022-10-06T05:51:14.507Z,4.85
2022-10-06T05:52:15.346Z,4.85
2022-10-06T05:53:16.186Z,4.82
2022-10-06T05:54:17.013Z,4.78
2022-10-06T05:55:17.856Z,4.77
2022-10-06T05:56:18.671Z,4.73
2022-10-06T05:57:19.503Z,4.73
2022-10-06T05:58:20.320Z,4.73
2022-10-06T05:59:21.148Z,4.75
2022-10-06T06:00:21.994Z,4.75
2022-10-06T06:01:22.874Z,4.77
2022-10-06T06:02:23.695Z,4.77
2022-10-06T06:03:24.508Z,4.75
2022-10-06T06:04:25.523Z,4.77
2022-10-06T06:05:26.291Z,4.80
2022-10-06T06:06:27.127Z,4.85
2022-10-06T06:07:27.957Z,4.89
2022-10-06T06:08:29.072Z,4.97
2022-10-06T06:09:29.558Z,5.06
2022-10-06T06:10:30.374Z,5.10
2022-10-06T06:11:31.203Z,5.21
2022-10-06T06:12:32.033Z,5.27
2022-10-06T06:13:32.874Z,5.31
2022-10-06T06:14:33.720Z,5.38
2022-10-06T06:15:34.535Z,5.40
2022-10-06T06:16:35.408Z,5.43
2022-10-06T06:17:36.223Z,5.43
2022-10-06T06:18:37.053Z,5.45
2022-10-06T06:19:37.900Z,5.42
2022-10-06T06:20:38.722Z,5.40
2022-10-06T06:21:39.549Z,5.36
2022-10-06T06:22:40.369Z,5.36
2022-10-06T06:23:41.200Z,5.35
2022-10-06T06:24:42.031Z,5.33
2022-10-06T06:25:42.862Z,5.33
2022-10-06T06:26:43.734Z,5.28
2022-10-06T06:27:44.537Z,5.30
2022-10-06T06:28:45.427Z,5.30
2022-10-06T06:29:46.208Z,5.33
2022-10-06T06:30:47.097Z,5.42
2022-10-06T06:31:47.963Z,5.51
2022-10-06T06:32:48.779Z,5.60
2022-10-06T06:33:49.612Z,5.68
2022-10-06T06:34:50.456Z,5.78
2022-10-06T06:35:51.262Z,5.86
2022-10-06T06:36:52.118Z,5.99
2022-10-06T06:37:52.970Z,6.03
2022-10-06T06:38:53.797Z,6.11
2022-10-06T06:39:54.628Z,6.22
2022-10-06T06:40:55.465Z,6.34
2022-10-06T06:41:56.298Z,6.49
2022-10-06T06:42:57.130Z,6.67
2022-10-06T06:43:57.954Z,6.89
2022-10-06T06:44:58.778Z,7.16
2022-10-06T06:45:59.640Z,7.43
2022-10-06T06:47:00.487Z,7.74
2022-10-06T06:48:01.287Z,8.02
2022-10-06T06:49:02.117Z,8.34
2022-10-06T06:50:02.957Z,8.66
2022-10-06T06:51:03.772Z,8.95
2022-10-06T06:52:04.600Z,9.24
2022-10-06T06:53:05.559Z,9.42
2022-10-06T06:54:06.335Z,9.65
2022-10-06T06:55:07.199Z,9.79
2022-10-06T06:56:07.990Z,9.99
2022-10-06T06:57:08.852Z,10.14
2022-10-06T06:58:09.721Z,10.22
2022-10-06T06:59:10.544Z,10.41
2022-10-06T07:00:11.342Z,10.56
2022-10-06T07:01:12.219Z,10.74
2022-10-06T07:02:13.051Z,10.91
2022-10-06T07:03:13.915Z,11.07
2022-10-06T07:04:14.690Z,11.22
2022-10-06T07:05:15.547Z,11.37
2022-10-06T07:06:16.358Z,11.51
2022-10-06T07:07:17.185Z,11.57
2022-10-06T07:08:18.004Z,11.61
2022-10-06T07:09:18.868Z,11.58
2022-10-06T07:10:19.685Z,11.67
2022-10-06T07:11:20.501Z,11.79
2022-10-06T07:12:21.331Z,11.91
2022-10-06T07:13:22.158Z,12.10
2022-10-06T07:14:22.994Z,12.23
2022-10-06T07:15:23.863Z,12.37
2022-10-06T07:16:24.665Z,12.41
2022-10-06T07:17:25.520Z,12.49
2022-10-06T07:18:26.753Z,12.64
2022-10-06T07:19:26.888Z,12.74
2022-10-06T07:20:27.838Z,12.75
2022-10-06T07:21:28.633Z,12.71
2022-10-06T07:22:29.431Z,12.77
2022-10-06T07:23:30.259Z,12.74
2022-10-06T07:24:31.113Z,12.62
2022-10-06T07:25:31.942Z,12.64
2022-10-06T07:26:32.772Z,12.60
2022-10-06T07:27:33.668Z,12.59
2022-10-06T07:28:34.502Z,12.57
2022-10-06T07:29:35.289Z,12.59
2022-10-06T07:30:40.518Z,12.60
2022-10-06T07:31:36.713Z,12.72
2022-10-06T07:32:37.546Z,12.85
2022-10-06T07:33:38.421Z,12.93
2022-10-06T07:34:39.262Z,13.03
2022-10-06T07:35:40.186Z,13.07
2022-10-06T07:36:40.951Z,13.12
2022-10-06T07:37:41.796Z,13.17
2022-10-06T07:38:42.610Z,13.22
2022-10-06T07:39:43.479Z,13.19
2022-10-06T07:40:46.502Z,13.22
2022-10-06T07:41:45.995Z,13.19
2022-10-06T07:42:45.823Z,13.22
2022-10-06T07:43:46.651Z,13.19
2022-10-06T07:44:47.481Z,13.25
2022-10-06T07:45:48.419Z,13.29
2022-10-06T07:46:49.219Z,13.41
2022-10-06T07:47:50.031Z,13.45
2022-10-06T07:48:50.861Z,13.44
2022-10-06T07:49:51.731Z,13.45
2022-10-06T07:50:52.543Z,13.39
2022-10-06T07:51:53.355Z,13.30
2022-10-06T07:52:54.186Z,13.28
2022-10-06T07:53:55.081Z,13.26
2022-10-06T07:54:56.273Z,13.28
2022-10-06T07:55:56.739Z,13.30
2022-10-06T07:56:57.570Z,13.30
2022-10-06T07:57:58.414Z,13.29
2022-10-06T07:58:59.301Z,13.32
2022-10-06T08:00:03.036Z,13.38
2022-10-06T08:01:00.736Z,13.45
2022-10-06T08:02:01.384Z,13.52
2022-10-06T08:03:02.335Z,13.63
2022-10-06T08:04:03.132Z,13.77
2022-10-06T08:05:04.007Z,13.88
2022-10-06T08:06:04.822Z,14.06
2022-10-06T08:07:05.628Z,14.21
2022-10-06T08:08:06.476Z,14.36
2022-10-06T08:09:07.303Z,14.52
2022-10-06T08:10:08.135Z,14.62
2022-10-06T08:11:08.952Z,14.72
2022-10-06T08:12:09.823Z,14.84
2022-10-06T08:13:10.625Z,14.94
2022-10-06T08:14:11.453Z,15.03
2022-10-06T08:15:12.272Z,15.17
2022-10-06T08:16:13.143Z,15.25
2022-10-06T08:17:13.942Z,15.27
2022-10-06T08:18:33.879Z,15.29
2022-10-06T08:19:16.503Z,15.29
2022-10-06T08:20:16.330Z,15.28
2022-10-06T08:21:17.174Z,15.20
2022-10-06T08:22:17.991Z,15.11
2022-10-06T08:23:18.824Z,15.01
2022-10-06T08:24:19.705Z,14.92
2022-10-06T08:25:20.504Z,14.78
2022-10-06T08:26:21.330Z,14.72
2022-10-06T08:27:22.198Z,14.62
2022-10-06T08:28:23.086Z,14.58
2022-10-06T08:29:23.857Z,14.54
2022-10-06T08:30:24.726Z,14.52
2022-10-06T08:31:25.605Z,14.54
2022-10-06T08:32:26.443Z,14.54
2022-10-06T08:33:27.263Z,14.58
2022-10-06T08:34:28.162Z,14.62
2022-10-06T08:35:28.991Z,14.69
2022-10-06T08:36:32.345Z,14.73
2022-10-06T08:37:30.629Z,14.78
2022-10-06T08:38:31.416Z,14.83
2022-10-06T08:39:32.384Z,14.84
2022-10-06T08:40:33.155Z,14.86
2022-10-06T08:41:33.967Z,14.92
2022-10-06T08:42:34.818Z,14.92
2022-10-06T08:43:35.625Z,14.96
2022-10-06T08:44:36.458Z,15.02
2022-10-06T08:45:38.863Z,15.03
2022-10-06T08:46:37.816Z,15.11
2022-10-06T08:47:38.653Z,15.11
2022-10-06T08:48:39.477Z,15.16
2022-10-06T08:49:40.303Z,15.16
2022-10-06T08:50:41.132Z,15.17
2022-10-06T08:51:41.993Z,15.20
2022-10-06T08:52:42.805Z,15.19
2022-10-06T08:53:43.647Z,15.19
2022-10-06T08:54:44.496Z,15.17
2022-10-06T08:55:45.314Z,15.17
2022-10-06T08:56:46.116Z,15.20
2022-10-06T08:57:46.956Z,15.20
2022-10-06T08:58:47.775Z,15.25
2022-10-06T08:59:48.645Z,15.27
2022-10-06T09:00:49.437Z,15.28
2022-10-06T09:01:50.419Z,15.31
2022-10-06T09:02:51.217Z,15.32
2022-10-06T09:03:52.053Z,15.35
2022-10-06T09:04:52.865Z,15.38
2022-10-06T09:05:53.720Z,15.36
2022-10-06T09:06:54.568Z,15.36
2022-10-06T09:07:55.362Z,15.38
2022-10-06T09:08:56.195Z,15.39
2022-10-06T09:09:57.438Z,15.41
2022-10-06T09:10:57.932Z,15.39
2022-10-06T09:11:58.791Z,15.41
2022-10-06T09:12:59.606Z,15.41
2022-10-06T09:14:00.437Z,15.44
2022-10-06T09:15:01.257Z,15.46
2022-10-06T09:16:02.163Z,15.46
2022-10-06T09:17:02.967Z,15.49
2022-10-06T09:18:03.836Z,15.51
2022-10-06T09:19:08.724Z,15.53
2022-10-06T09:20:05.622Z,15.56
2022-10-06T09:21:06.443Z,15.57
2022-10-06T09:22:07.291Z,15.59
2022-10-06T09:23:08.101Z,15.59
2022-10-06T09:24:08.984Z,15.64
2022-10-06T09:25:09.773Z,15.65
2022-10-06T09:26:10.602Z,15.68
2022-10-06T09:29:01.157Z,15.74
2022-10-06T09:30:01.995Z,15.78
2022-10-06T09:31:02.883Z,15.80
2022-10-06T09:32:03.654Z,15.84
2022-10-06T09:33:04.498Z,15.87
2022-10-06T09:34:05.326Z,15.90
2022-10-06T09:35:06.157Z,15.94
2022-10-06T09:36:06.987Z,16.00
2022-10-06T09:37:07.833Z,16.02
2022-10-06T09:38:09.448Z,16.08
2022-10-06T09:39:09.239Z,16.12
2022-10-06T09:40:10.065Z,16.17
2022-10-06T09:41:10.893Z,16.21
2022-10-06T09:42:11.720Z,16.25
2022-10-06T09:43:12.559Z,16.25
2022-10-06T09:44:13.386Z,16.30
2022-10-06T09:45:14.256Z,16.34
2022-10-06T09:46:15.072Z,16.34
2022-10-06T09:47:15.898Z,16.38
2022-10-06T09:48:18.146Z,16.35
2022-10-06T09:49:17.254Z,16.39
2022-10-06T09:50:18.114Z,16.38
2022-10-06T09:51:18.954Z,16.41
2022-10-06T09:52:19.775Z,16.43
2022-10-06T09:53:20.688Z,16.43
2022-10-06T09:54:21.483Z,16.45
2022-10-06T09:55:22.312Z,16.45
2022-10-06T09:56:23.132Z,16.48
2022-10-06T09:57:23.960Z,16.48
2022-10-06T09:58:24.808Z,16.49
2022-10-06T09:59:25.686Z,16.49
2022-10-06T10:00:26.484Z,16.49
2022-10-06T10:01:27.436Z,16.50
2022-10-06T10:02:28.297Z,16.50
2022-10-06T10:03:29.093Z,16.52
2022-10-06T10:04:29.924Z,16.52
2022-10-06T10:05:30.792Z,16.53
2022-10-06T10:06:31.584Z,16.57
2022-10-06T10:07:32.414Z,16.60
2022-10-06T10:09:34.083Z,16.64
2022-10-06T10:10:34.903Z,16.67
2022-10-06T10:11:35.771Z,16.68
2022-10-06T10:12:36.565Z,16.71
2022-10-06T10:13:37.405Z,16.73
2022-10-06T10:14:38.240Z,16.76
2022-10-06T10:15:39.071Z,16.78
2022-10-06T10:16:39.933Z,16.82
2022-10-06T10:17:40.793Z,16.83
2022-10-06T10:18:41.604Z,16.85
2022-10-06T10:19:42.430Z,16.86
2022-10-06T10:20:43.248Z,16.89
2022-10-06T10:21:44.077Z,16.91
2022-10-06T10:22:44.905Z,16.94
2022-10-06T10:23:45.800Z,16.97
2022-10-06T10:24:46.592Z,17.00
2022-10-06T10:25:47.414Z,17.03
2022-10-06T10:26:48.254Z,17.04
2022-10-06T10:27:49.070Z,17.07
2022-10-06T10:28:49.911Z,17.11
2022-10-06T10:29:50.784Z,17.15
2022-10-06T10:30:51.568Z,17.15
2022-10-06T10:31:52.492Z,17.16
2022-10-06T10:32:53.316Z,17.18
2022-10-06T10:34:05.317Z,17.21
2022-10-06T10:34:56.234Z,17.22
2022-10-06T10:35:55.761Z,17.23
2022-10-06T10:36:56.568Z,17.25
2022-10-06T10:37:57.396Z,17.30
2022-10-06T10:38:58.244Z,17.33
2022-10-06T10:39:59.055Z,17.33
2022-10-06T10:40:59.886Z,17.36
2022-10-06T10:42:00.770Z,17.38
2022-10-06T10:43:01.548Z,17.38
2022-10-06T10:44:04.186Z,17.44
2022-10-06T10:45:03.073Z,17.46
2022-10-06T10:46:03.893Z,17.48
2022-10-06T10:47:04.761Z,17.48
2022-10-06T10:48:05.598Z,17.51
2022-10-06T10:49:06.396Z,17.52
2022-10-06T10:50:07.225Z,17.52
2022-10-06T10:51:08.058Z,17.52
2022-10-06T10:52:08.883Z,17.54
2022-10-06T10:53:09.756Z,17.54
2022-10-06T10:54:10.588Z,17.56
2022-10-06T10:55:11.398Z,17.55
2022-10-06T10:56:12.226Z,17.56
2022-10-06T10:57:13.060Z,17.56
2022-10-06T10:58:13.886Z,17.55
2022-10-06T10:59:14.732Z,17.56
2022-10-06T11:00:15.614Z,17.59
2022-10-06T11:01:16.475Z,17.62
2022-10-06T11:02:17.337Z,17.63
2022-10-06T11:03:18.135Z,17.66
2022-10-06T11:04:18.979Z,17.71
2022-10-06T11:05:19.833Z,17.72
2022-10-06T11:06:20.726Z,17.75
2022-10-06T11:07:21.504Z,17.75
2022-10-06T11:08:22.336Z,17.75
2022-10-06T11:09:23.227Z,17.78
2022-10-06T11:10:24.005Z,17.79
2022-10-06T11:11:24.841Z,17.79
2022-10-06T11:12:25.716Z,17.81
2022-10-06T11:13:26.505Z,17.81
2022-10-06T11:14:27.351Z,17.81
2022-10-06T11:15:28.193Z,17.86
2022-10-06T11:16:29.139Z,17.86
2022-10-06T11:17:29.978Z,17.87
2022-10-06T11:18:30.850Z,17.90
2022-10-06T11:19:31.652Z,17.90
2022-10-06T11:20:32.482Z,17.92
2022-10-06T11:21:33.300Z,17.95
2022-10-06T11:22:34.132Z,17.96
2022-10-06T11:23:34.960Z,17.96
2022-10-06T11:24:35.816Z,17.99
2022-10-06T11:25:36.689Z,17.99
2022-10-06T11:26:37.473Z,17.97
2022-10-06T11:27:38.295Z,18.00
2022-10-06T11:28:39.209Z,18.02
2022-10-06T11:29:40.009Z,18.05
2022-10-06T11:30:40.856Z,18.07
2022-10-06T11:31:41.780Z,18.10
2022-10-06T11:32:42.544Z,18.11
2022-10-06T11:33:43.371Z,18.14
2022-10-06T11:34:44.247Z,18.12
2022-10-06T11:35:45.099Z,18.14
2022-10-06T11:36:45.964Z,18.17
2022-10-06T11:37:46.756Z,18.17
2022-10-06T11:38:47.583Z,18.17
2022-10-06T11:39:48.470Z,18.15
2022-10-06T11:40:49.255Z,18.17
2022-10-06T11:41:50.083Z,18.15
2022-10-06T11:42:50.903Z,18.17
2022-10-06T11:43:51.731Z,18.17
2022-10-06T11:44:52.565Z,18.17
2022-10-06T11:45:53.498Z,18.15
2022-10-06T11:46:54.277Z,18.17
2022-10-06T11:47:55.102Z,18.18
2022-10-06T11:48:55.934Z,18.18
2022-10-06T11:49:56.792Z,18.21
2022-10-06T11:50:57.613Z,18.21
2022-10-06T11:52:00.883Z,18.23
2022-10-06T11:52:59.246Z,18.26
2022-10-06T11:54:00.081Z,18.26
2022-10-06T11:55:01.309Z,18.29
2022-10-06T11:56:01.783Z,18.26
2022-10-06T11:57:02.602Z,18.29
2022-10-06T11:58:12.587Z,18.30
2022-10-06T11:59:05.154Z,18.30
2022-10-06T12:00:05.002Z,18.32
2022-10-06T12:01:05.828Z,18.35
2022-10-06T12:02:06.741Z,18.37
2022-10-06T12:03:07.713Z,18.41
2022-10-06T12:04:08.549Z,18.44
2022-10-06T12:05:28.521Z,18.44
2022-10-06T12:06:11.070Z,18.45
2022-10-06T12:07:10.900Z,18.47
2022-10-06T12:08:11.727Z,18.48
2022-10-06T12:09:12.548Z,18.50
2022-10-06T12:10:13.448Z,18.50
2022-10-06T12:11:14.231Z,18.50
2022-10-06T12:12:15.074Z,18.48
2022-10-06T12:13:50.484Z,18.50
2022-10-06T12:17:20.042Z,18.52
2022-10-06T12:18:19.376Z,18.52
2022-10-06T12:19:20.192Z,18.52
2022-10-06T12:20:21.058Z,18.55
2022-10-06T12:21:21.876Z,18.57
2022-10-06T12:22:22.750Z,18.62
2022-10-06T12:23:23.559Z,18.60
2022-10-06T12:24:24.388Z,18.65
2022-10-06T12:25:25.279Z,18.63
2022-10-06T12:26:26.081Z,18.65
2022-10-06T12:27:26.914Z,18.66
2022-10-06T12:28:27.818Z,18.66
2022-10-06T12:29:28.602Z,18.67
2022-10-06T12:30:29.524Z,18.70
2022-10-06T12:31:30.366Z,18.70
2022-10-06T12:32:31.152Z,18.70
2022-10-06T12:33:31.983Z,18.70
2022-10-06T12:34:32.857Z,18.70
2022-10-06T12:35:33.656Z,18.72
2022-10-06T12:36:34.486Z,18.72
2022-10-06T12:37:35.307Z,18.70
2022-10-06T12:38:36.135Z,18.70
2022-10-06T12:39:36.954Z,18.75
2022-10-06T12:40:37.834Z,18.73
2022-10-06T12:41:38.618Z,18.75
2022-10-06T12:42:39.479Z,18.75
2022-10-06T12:43:40.307Z,18.76
2022-10-06T12:44:41.137Z,18.76
2022-10-06T12:45:45.901Z,18.76
2022-10-06T12:46:42.813Z,18.78
2022-10-06T12:47:43.643Z,18.80
2022-10-06T12:48:44.470Z,18.80
2022-10-06T12:49:45.302Z,18.81
2022-10-06T12:50:46.159Z,18.82
2022-10-06T12:51:46.992Z,18.82
2022-10-06T12:52:47.920Z,18.84
2022-10-06T12:53:48.708Z,18.85
2022-10-06T12:54:49.539Z,18.87
2022-10-06T12:55:50.401Z,18.87
2022-10-06T12:56:51.211Z,18.87
2022-10-06T12:57:52.033Z,18.88
2022-10-06T12:58:52.855Z,18.87
2022-10-06T12:59:53.733Z,18.85
2022-10-06T13:00:54.533Z,18.84
2022-10-06T13:01:55.365Z,18.84
2022-10-06T13:02:56.196Z,18.82
2022-10-06T13:03:57.032Z,18.80
2022-10-06T13:04:58.102Z,18.78
2022-10-06T13:05:58.974Z,18.75
2022-10-06T13:06:59.256Z,18.75
2022-10-06T13:08:00.105Z,18.76
2022-10-06T13:09:00.906Z,18.78
2022-10-06T13:10:01.748Z,18.76
2022-10-06T13:11:02.614Z,18.78
2022-10-06T13:12:03.431Z,18.75
2022-10-06T13:13:04.308Z,18.75
2022-10-06T13:14:05.097Z,18.73
2022-10-06T13:15:05.933Z,18.73
2022-10-06T13:16:06.792Z,18.75
2022-10-06T13:17:07.688Z,18.75
2022-10-06T13:18:08.455Z,18.76
2022-10-06T13:19:09.563Z,18.73
2022-10-06T13:20:09.884Z,18.75
2022-10-06T13:21:10.703Z,18.73
2022-10-06T13:22:11.535Z,18.72